sensor_id;sensor_type;location;lat;lon;timestamp;temperature;humidity
37380;DHT22;23252;-33.992;18.480;2023-08-06T00:01:26;11.80;99.90
37380;DHT22;23252;-33.992;18.480;2023-08-06T00:03:52;11.80;99.90
37380;DHT22;23252;-33.992;18.480;2023-08-06T00:06:19;11.80;99.90
37380;DHT22;23252;-33.992;18.480;2023-08-06T00:08:45;11.80;99.90
37380;DHT22;23252;-33.992;18.480;2023-08-06T00:11:12;11.70;99.90
37380;DHT22;23252;-33.992;18.480;2023-08-06T00:13:39;11.70;99.90
37380;DHT22;23252;-33.992;18.480;2023-08-06T00:16:13;11.70;99.90
37380;DHT22;23252;-33.992;18.480;2023-08-06T00:18:40;11.70;99.90
37380;DHT22;23252;-33.992;18.480;2023-08-06T00:21:07;11.70;99.90
37380;DHT22;23252;-33.992;18.480;2023-08-06T00:23:34;11.70;99.90
37380;DHT22;23252;-33.992;18.480;2023-08-06T00:26:00;11.70;99.90
37380;DHT22;23252;-33.992;18.480;2023-08-06T00:28:27;11.70;99.90
37380;DHT22;23252;-33.992;18.480;2023-08-06T00:30:57;11.70;99.90
37380;DHT22;23252;-33.992;18.480;2023-08-06T00:33:24;11.70;99.90
37380;DHT22;23252;-33.992;18.480;2023-08-06T00:35:50;11.70;99.90
37380;DHT22;23252;-33.992;18.480;2023-08-06T00:38:17;11.70;99.90
37380;DHT22;23252;-33.992;18.480;2023-08-06T00:40:43;11.70;99.90
37380;DHT22;23252;-33.992;18.480;2023-08-06T00:43:10;11.70;99.90
37380;DHT22;23252;-33.992;18.480;2023-08-06T00:45:37;11.70;99.90
37380;DHT22;23252;-33.992;18.480;2023-08-06T00:48:05;11.70;99.90
37380;DHT22;23252;-33.992;18.480;2023-08-06T00:50:33;11.70;99.90
37380;DHT22;23252;-33.992;18.480;2023-08-06T00:52:59;11.70;99.90
37380;DHT22;23252;-33.992;18.480;2023-08-06T00:55:26;11.60;99.90
37380;DHT22;23252;-33.992;18.480;2023-08-06T00:57:53;11.60;99.90
37380;DHT22;23252;-33.992;18.480;2023-08-06T01:00:22;11.60;99.90
37380;DHT22;23252;-33.992;18.480;2023-08-06T01:02:50;11.50;99.90
37380;DHT22;23252;-33.992;18.480;2023-08-06T01:05:16;11.50;99.90
37380;DHT22;23252;-33.992;18.480;2023-08-06T01:10:51;11.50;99.90
37380;DHT22;23252;-33.992;18.480;2023-08-06T01:13:48;11.60;99.90
37380;DHT22;23252;-33.992;18.480;2023-08-06T01:16:21;11.60;99.90
37380;DHT22;23252;-33.992;18.480;2023-08-06T01:18:50;11.60;99.90
37380;DHT22;23252;-33.992;18.480;2023-08-06T01:21:17;11.60;99.90
37380;DHT22;23252;-33.992;18.480;2023-08-06T01:23:44;11.60;99.90
37380;DHT22;23252;-33.992;18.480;2023-08-06T01:29:05;11.50;99.90
37380;DHT22;23252;-33.992;18.480;2023-08-06T01:31:43;11.50;99.90
37380;DHT22;23252;-33.992;18.480;2023-08-06T01:34:22;11.50;99.90
37380;DHT22;23252;-33.992;18.480;2023-08-06T01:36:50;11.50;99.90
37380;DHT22;23252;-33.992;18.480;2023-08-06T01:39:17;11.40;99.90
37380;DHT22;23252;-33.992;18.480;2023-08-06T01:41:48;11.40;99.90
37380;DHT22;23252;-33.992;18.480;2023-08-06T01:44:15;11.40;99.90
37380;DHT22;23252;-33.992;18.480;2023-08-06T01:46:42;11.50;99.90
37380;DHT22;23252;-33.992;18.480;2023-08-06T01:49:08;11.50;99.90
37380;DHT22;23252;-33.992;18.480;2023-08-06T01:51:35;11.50;99.90
37380;DHT22;23252;-33.992;18.480;2023-08-06T01:54:01;11.50;99.90
37380;DHT22;23252;-33.992;18.480;2023-08-06T01:56:28;11.50;99.90
37380;DHT22;23252;-33.992;18.480;2023-08-06T01:58:54;11.40;99.90
37380;DHT22;23252;-33.992;18.480;2023-08-06T02:01:21;11.40;99.90
37380;DHT22;23252;-33.992;18.480;2023-08-06T02:03:47;11.40;99.90
37380;DHT22;23252;-33.992;18.480;2023-08-06T02:06:14;11.40;99.90
37380;DHT22;23252;-33.992;18.480;2023-08-06T02:08:40;11.30;99.90
37380;DHT22;23252;-33.992;18.480;2023-08-06T02:11:07;11.30;99.90
37380;DHT22;23252;-33.992;18.480;2023-08-06T02:13:33;11.30;99.90
37380;DHT22;23252;-33.992;18.480;2023-08-06T02:16:00;11.30;99.90
37380;DHT22;23252;-33.992;18.480;2023-08-06T02:18:26;11.30;99.90
37380;DHT22;23252;-33.992;18.480;2023-08-06T02:20:59;11.30;99.90
37380;DHT22;23252;-33.992;18.480;2023-08-06T02:23:26;11.20;99.90
37380;DHT22;23252;-33.992;18.480;2023-08-06T02:26:03;11.20;99.90
37380;DHT22;23252;-33.992;18.480;2023-08-06T02:28:30;11.20;99.90
37380;DHT22;23252;-33.992;18.480;2023-08-06T02:30:57;11.20;99.90
37380;DHT22;23252;-33.992;18.480;2023-08-06T02:33:23;11.10;99.90
37380;DHT22;23252;-33.992;18.480;2023-08-06T02:35:50;11.10;99.90
37380;DHT22;23252;-33.992;18.480;2023-08-06T02:38:16;11.10;99.90
37380;DHT22;23252;-33.992;18.480;2023-08-06T02:40:44;11.00;99.90
37380;DHT22;23252;-33.992;18.480;2023-08-06T02:43:12;11.00;99.90
37380;DHT22;23252;-33.992;18.480;2023-08-06T02:45:38;10.90;99.90
37380;DHT22;23252;-33.992;18.480;2023-08-06T02:48:05;10.90;99.90
37380;DHT22;23252;-33.992;18.480;2023-08-06T02:50:37;10.90;99.90
37380;DHT22;23252;-33.992;18.480;2023-08-06T02:53:04;10.90;99.90
37380;DHT22;23252;-33.992;18.480;2023-08-06T02:55:30;10.90;99.90
37380;DHT22;23252;-33.992;18.480;2023-08-06T02:57:56;11.00;99.90
37380;DHT22;23252;-33.992;18.480;2023-08-06T03:00:23;11.10;99.90
37380;DHT22;23252;-33.992;18.480;2023-08-06T03:02:49;11.20;99.90
37380;DHT22;23252;-33.992;18.480;2023-08-06T03:05:16;11.20;99.90
37380;DHT22;23252;-33.992;18.480;2023-08-06T03:07:42;11.30;99.90
37380;DHT22;23252;-33.992;18.480;2023-08-06T03:10:09;11.30;99.90
37380;DHT22;23252;-33.992;18.480;2023-08-06T03:12:36;11.20;99.90
37380;DHT22;23252;-33.992;18.480;2023-08-06T03:15:02;11.30;99.90
37380;DHT22;23252;-33.992;18.480;2023-08-06T03:17:29;11.30;99.90
37380;DHT22;23252;-33.992;18.480;2023-08-06T03:19:55;11.30;99.90
37380;DHT22;23252;-33.992;18.480;2023-08-06T03:22:22;11.40;99.90
37380;DHT22;23252;-33.992;18.480;2023-08-06T03:24:50;11.40;99.90
37380;DHT22;23252;-33.992;18.480;2023-08-06T03:27:17;11.60;99.90
37380;DHT22;23252;-33.992;18.480;2023-08-06T03:29:44;11.60;99.90
37380;DHT22;23252;-33.992;18.480;2023-08-06T03:32:10;11.50;99.90
37380;DHT22;23252;-33.992;18.480;2023-08-06T03:34:37;11.60;99.90
37380;DHT22;23252;-33.992;18.480;2023-08-06T03:37:03;11.60;99.90
37380;DHT22;23252;-33.992;18.480;2023-08-06T03:39:30;11.60;99.90
37380;DHT22;23252;-33.992;18.480;2023-08-06T03:41:56;11.60;99.90
37380;DHT22;23252;-33.992;18.480;2023-08-06T03:44:23;11.60;99.90
37380;DHT22;23252;-33.992;18.480;2023-08-06T03:46:49;11.50;99.90
37380;DHT22;23252;-33.992;18.480;2023-08-06T03:49:16;11.50;99.90
37380;DHT22;23252;-33.992;18.480;2023-08-06T03:51:42;11.50;99.90
37380;DHT22;23252;-33.992;18.480;2023-08-06T03:54:09;11.60;99.90
37380;DHT22;23252;-33.992;18.480;2023-08-06T03:56:35;11.60;99.90
37380;DHT22;23252;-33.992;18.480;2023-08-06T03:59:02;11.60;99.90
37380;DHT22;23252;-33.992;18.480;2023-08-06T04:01:28;11.50;99.90
37380;DHT22;23252;-33.992;18.480;2023-08-06T04:03:55;11.50;99.90
37380;DHT22;23252;-33.992;18.480;2023-08-06T04:06:21;11.50;99.90
37380;DHT22;23252;-33.992;18.480;2023-08-06T04:08:48;11.50;99.90
37380;DHT22;23252;-33.992;18.480;2023-08-06T04:11:14;11.50;99.90
37380;DHT22;23252;-33.992;18.480;2023-08-06T04:13:44;11.50;99.90
37380;DHT22;23252;-33.992;18.480;2023-08-06T04:16:10;11.60;99.90
37380;DHT22;23252;-33.992;18.480;2023-08-06T04:18:37;11.50;99.90
37380;DHT22;23252;-33.992;18.480;2023-08-06T04:21:03;11.50;99.90
37380;DHT22;23252;-33.992;18.480;2023-08-06T04:23:30;11.50;99.90
37380;DHT22;23252;-33.992;18.480;2023-08-06T04:25:57;11.50;99.90
37380;DHT22;23252;-33.992;18.480;2023-08-06T04:28:23;11.50;99.90
37380;DHT22;23252;-33.992;18.480;2023-08-06T04:30:50;11.50;99.90
37380;DHT22;23252;-33.992;18.480;2023-08-06T04:33:16;11.50;99.90
37380;DHT22;23252;-33.992;18.480;2023-08-06T04:35:43;11.50;99.90
37380;DHT22;23252;-33.992;18.480;2023-08-06T04:38:09;11.50;99.90
37380;DHT22;23252;-33.992;18.480;2023-08-06T04:40:36;11.50;99.90
37380;DHT22;23252;-33.992;18.480;2023-08-06T04:43:03;11.50;99.90
37380;DHT22;23252;-33.992;18.480;2023-08-06T04:45:29;11.60;99.90
37380;DHT22;23252;-33.992;18.480;2023-08-06T04:47:56;11.70;99.90
37380;DHT22;23252;-33.992;18.480;2023-08-06T04:50:22;11.70;99.90
37380;DHT22;23252;-33.992;18.480;2023-08-06T04:52:49;11.80;99.90
37380;DHT22;23252;-33.992;18.480;2023-08-06T04:55:15;11.80;99.90
37380;DHT22;23252;-33.992;18.480;2023-08-06T04:57:42;11.70;99.90
37380;DHT22;23252;-33.992;18.480;2023-08-06T05:00:08;11.70;99.90
37380;DHT22;23252;-33.992;18.480;2023-08-06T05:02:35;11.60;99.90
37380;DHT22;23252;-33.992;18.480;2023-08-06T05:05:04;11.60;99.90
37380;DHT22;23252;-33.992;18.480;2023-08-06T05:07:30;11.60;99.90
37380;DHT22;23252;-33.992;18.480;2023-08-06T05:09:57;11.60;99.90
37380;DHT22;23252;-33.992;18.480;2023-08-06T05:12:23;11.50;99.90
37380;DHT22;23252;-33.992;18.480;2023-08-06T05:14:50;11.50;99.90
37380;DHT22;23252;-33.992;18.480;2023-08-06T05:17:16;11.50;99.90
37380;DHT22;23252;-33.992;18.480;2023-08-06T05:19:43;11.50;99.90
37380;DHT22;23252;-33.992;18.480;2023-08-06T05:22:09;11.60;99.90
37380;DHT22;23252;-33.992;18.480;2023-08-06T05:24:36;11.50;99.90
37380;DHT22;23252;-33.992;18.480;2023-08-06T05:27:02;11.50;99.90
37380;DHT22;23252;-33.992;18.480;2023-08-06T05:29:29;11.60;99.90
37380;DHT22;23252;-33.992;18.480;2023-08-06T05:31:55;11.60;99.90
37380;DHT22;23252;-33.992;18.480;2023-08-06T05:34:22;11.70;99.90
37380;DHT22;23252;-33.992;18.480;2023-08-06T05:36:48;11.70;99.90
37380;DHT22;23252;-33.992;18.480;2023-08-06T05:39:15;11.70;99.90
37380;DHT22;23252;-33.992;18.480;2023-08-06T05:41:41;11.60;99.90
37380;DHT22;23252;-33.992;18.480;2023-08-06T05:44:08;11.60;99.90
37380;DHT22;23252;-33.992;18.480;2023-08-06T05:46:34;11.60;99.90
37380;DHT22;23252;-33.992;18.480;2023-08-06T05:49:01;11.60;99.90
37380;DHT22;23252;-33.992;18.480;2023-08-06T05:51:27;11.50;99.90
37380;DHT22;23252;-33.992;18.480;2023-08-06T05:53:54;11.50;99.90
37380;DHT22;23252;-33.992;18.480;2023-08-06T05:56:20;11.60;99.90
37380;DHT22;23252;-33.992;18.480;2023-08-06T05:58:47;11.70;99.90
37380;DHT22;23252;-33.992;18.480;2023-08-06T06:01:14;11.70;99.90
37380;DHT22;23252;-33.992;18.480;2023-08-06T06:03:41;11.70;99.90
37380;DHT22;23252;-33.992;18.480;2023-08-06T06:06:07;11.80;99.90
37380;DHT22;23252;-33.992;18.480;2023-08-06T06:08:34;11.70;99.90
37380;DHT22;23252;-33.992;18.480;2023-08-06T06:11:00;11.80;99.90
37380;DHT22;23252;-33.992;18.480;2023-08-06T06:13:27;11.90;99.90
37380;DHT22;23252;-33.992;18.480;2023-08-06T06:15:57;11.90;99.90
37380;DHT22;23252;-33.992;18.480;2023-08-06T06:18:23;11.90;99.90
37380;DHT22;23252;-33.992;18.480;2023-08-06T06:20:50;11.90;99.90
37380;DHT22;23252;-33.992;18.480;2023-08-06T06:23:16;11.90;99.90
37380;DHT22;23252;-33.992;18.480;2023-08-06T06:25:46;11.90;99.90
37380;DHT22;23252;-33.992;18.480;2023-08-06T06:28:13;11.90;99.90
37380;DHT22;23252;-33.992;18.480;2023-08-06T06:30:41;12.00;99.90
37380;DHT22;23252;-33.992;18.480;2023-08-06T06:33:08;12.00;99.90
37380;DHT22;23252;-33.992;18.480;2023-08-06T06:35:34;11.90;99.90
37380;DHT22;23252;-33.992;18.480;2023-08-06T06:38:01;12.00;99.90
37380;DHT22;23252;-33.992;18.480;2023-08-06T06:40:28;12.00;99.90
37380;DHT22;23252;-33.992;18.480;2023-08-06T06:42:55;12.00;99.90
37380;DHT22;23252;-33.992;18.480;2023-08-06T06:45:21;12.00;99.90
37380;DHT22;23252;-33.992;18.480;2023-08-06T06:47:48;12.00;99.90
37380;DHT22;23252;-33.992;18.480;2023-08-06T06:50:14;11.90;99.90
37380;DHT22;23252;-33.992;18.480;2023-08-06T06:52:41;11.90;99.90
37380;DHT22;23252;-33.992;18.480;2023-08-06T06:55:08;11.90;99.90
37380;DHT22;23252;-33.992;18.480;2023-08-06T06:57:34;12.00;99.90
37380;DHT22;23252;-33.992;18.480;2023-08-06T07:00:01;12.00;99.90
37380;DHT22;23252;-33.992;18.480;2023-08-06T07:02:28;12.10;99.90
37380;DHT22;23252;-33.992;18.480;2023-08-06T07:04:54;12.10;99.90
37380;DHT22;23252;-33.992;18.480;2023-08-06T07:07:21;12.20;99.90
37380;DHT22;23252;-33.992;18.480;2023-08-06T07:09:47;12.30;99.90
37380;DHT22;23252;-33.992;18.480;2023-08-06T07:12:14;12.50;99.90
37380;DHT22;23252;-33.992;18.480;2023-08-06T07:14:40;12.50;99.90
37380;DHT22;23252;-33.992;18.480;2023-08-06T07:17:07;12.60;99.90
37380;DHT22;23252;-33.992;18.480;2023-08-06T07:19:33;12.70;99.90
37380;DHT22;23252;-33.992;18.480;2023-08-06T07:22:00;12.80;99.90
37380;DHT22;23252;-33.992;18.480;2023-08-06T07:24:26;12.90;99.90
37380;DHT22;23252;-33.992;18.480;2023-08-06T07:26:53;12.90;99.90
37380;DHT22;23252;-33.992;18.480;2023-08-06T07:29:19;13.00;99.90
37380;DHT22;23252;-33.992;18.480;2023-08-06T07:31:47;13.10;99.90
37380;DHT22;23252;-33.992;18.480;2023-08-06T07:34:15;13.10;99.90
37380;DHT22;23252;-33.992;18.480;2023-08-06T07:36:44;13.20;99.90
37380;DHT22;23252;-33.992;18.480;2023-08-06T07:39:11;13.30;99.90
37380;DHT22;23252;-33.992;18.480;2023-08-06T07:41:38;13.30;99.90
37380;DHT22;23252;-33.992;18.480;2023-08-06T07:44:05;13.40;99.90
37380;DHT22;23252;-33.992;18.480;2023-08-06T07:46:31;13.50;99.90
37380;DHT22;23252;-33.992;18.480;2023-08-06T07:48:58;13.60;99.90
37380;DHT22;23252;-33.992;18.480;2023-08-06T07:51:24;13.80;99.90
37380;DHT22;23252;-33.992;18.480;2023-08-06T07:53:51;13.80;99.90
37380;DHT22;23252;-33.992;18.480;2023-08-06T07:56:17;13.90;99.90
37380;DHT22;23252;-33.992;18.480;2023-08-06T07:58:43;14.00;99.90
37380;DHT22;23252;-33.992;18.480;2023-08-06T08:01:10;14.10;99.90
37380;DHT22;23252;-33.992;18.480;2023-08-06T08:03:36;14.10;99.90
37380;DHT22;23252;-33.992;18.480;2023-08-06T08:06:03;14.20;99.90
37380;DHT22;23252;-33.992;18.480;2023-08-06T08:08:29;14.20;99.90
37380;DHT22;23252;-33.992;18.480;2023-08-06T08:10:57;14.40;99.90
37380;DHT22;23252;-33.992;18.480;2023-08-06T08:13:26;14.30;99.90
37380;DHT22;23252;-33.992;18.480;2023-08-06T08:15:57;14.30;99.90
37380;DHT22;23252;-33.992;18.480;2023-08-06T08:18:24;14.30;99.90
37380;DHT22;23252;-33.992;18.480;2023-08-06T08:20:51;14.40;99.90
37380;DHT22;23252;-33.992;18.480;2023-08-06T08:23:17;14.40;99.90
37380;DHT22;23252;-33.992;18.480;2023-08-06T08:25:44;14.50;99.90
37380;DHT22;23252;-33.992;18.480;2023-08-06T08:28:10;14.50;99.90
37380;DHT22;23252;-33.992;18.480;2023-08-06T08:30:37;14.60;99.90
37380;DHT22;23252;-33.992;18.480;2023-08-06T08:33:03;14.70;99.90
37380;DHT22;23252;-33.992;18.480;2023-08-06T08:35:30;14.70;99.90
37380;DHT22;23252;-33.992;18.480;2023-08-06T08:37:56;14.70;99.90
37380;DHT22;23252;-33.992;18.480;2023-08-06T08:40:29;14.80;99.90
37380;DHT22;23252;-33.992;18.480;2023-08-06T08:42:58;14.80;99.90
37380;DHT22;23252;-33.992;18.480;2023-08-06T08:45:28;14.90;99.90
37380;DHT22;23252;-33.992;18.480;2023-08-06T08:47:55;14.90;99.90
37380;DHT22;23252;-33.992;18.480;2023-08-06T08:50:22;15.00;99.90
37380;DHT22;23252;-33.992;18.480;2023-08-06T08:52:50;15.00;99.90
37380;DHT22;23252;-33.992;18.480;2023-08-06T08:55:18;15.00;99.90
37380;DHT22;23252;-33.992;18.480;2023-08-06T08:57:47;15.00;99.90
37380;DHT22;23252;-33.992;18.480;2023-08-06T09:00:13;15.10;99.90
37380;DHT22;23252;-33.992;18.480;2023-08-06T09:02:40;15.10;99.90
37380;DHT22;23252;-33.992;18.480;2023-08-06T09:05:09;15.10;99.90
37380;DHT22;23252;-33.992;18.480;2023-08-06T09:07:42;15.20;99.90
37380;DHT22;23252;-33.992;18.480;2023-08-06T09:10:14;15.20;99.90
37380;DHT22;23252;-33.992;18.480;2023-08-06T09:12:44;15.20;99.90
37380;DHT22;23252;-33.992;18.480;2023-08-06T09:15:11;15.20;99.90
37380;DHT22;23252;-33.992;18.480;2023-08-06T09:17:37;15.20;99.90
37380;DHT22;23252;-33.992;18.480;2023-08-06T09:20:13;15.30;99.90
37380;DHT22;23252;-33.992;18.480;2023-08-06T09:22:41;15.30;99.90
37380;DHT22;23252;-33.992;18.480;2023-08-06T09:25:08;15.30;99.90
37380;DHT22;23252;-33.992;18.480;2023-08-06T09:27:39;15.30;99.90
37380;DHT22;23252;-33.992;18.480;2023-08-06T09:30:09;15.40;99.90
37380;DHT22;23252;-33.992;18.480;2023-08-06T09:32:48;15.40;99.90
37380;DHT22;23252;-33.992;18.480;2023-08-06T09:35:18;15.50;99.90
37380;DHT22;23252;-33.992;18.480;2023-08-06T09:37:46;15.60;99.90
37380;DHT22;23252;-33.992;18.480;2023-08-06T09:40:32;15.70;99.90
37380;DHT22;23252;-33.992;18.480;2023-08-06T09:42:59;15.70;99.90
37380;DHT22;23252;-33.992;18.480;2023-08-06T09:45:34;15.80;99.90
37380;DHT22;23252;-33.992;18.480;2023-08-06T09:48:06;15.80;99.90
37380;DHT22;23252;-33.992;18.480;2023-08-06T09:50:34;15.80;99.90
37380;DHT22;23252;-33.992;18.480;2023-08-06T09:53:03;15.90;99.90
37380;DHT22;23252;-33.992;18.480;2023-08-06T09:55:30;15.90;99.90
37380;DHT22;23252;-33.992;18.480;2023-08-06T09:57:58;16.00;99.90
37380;DHT22;23252;-33.992;18.480;2023-08-06T10:00:24;16.00;99.90
37380;DHT22;23252;-33.992;18.480;2023-08-06T10:02:53;16.00;99.90
37380;DHT22;23252;-33.992;18.480;2023-08-06T10:05:23;16.10;99.90
37380;DHT22;23252;-33.992;18.480;2023-08-06T10:07:50;16.20;99.90
37380;DHT22;23252;-33.992;18.480;2023-08-06T10:10:17;16.30;99.90
37380;DHT22;23252;-33.992;18.480;2023-08-06T10:12:49;16.40;99.90
37380;DHT22;23252;-33.992;18.480;2023-08-06T10:15:21;16.40;99.90
37380;DHT22;23252;-33.992;18.480;2023-08-06T10:17:51;16.50;99.90
37380;DHT22;23252;-33.992;18.480;2023-08-06T10:20:18;16.60;99.90
37380;DHT22;23252;-33.992;18.480;2023-08-06T10:23:00;16.60;99.90
37380;DHT22;23252;-33.992;18.480;2023-08-06T10:25:31;16.60;99.90
37380;DHT22;23252;-33.992;18.480;2023-08-06T10:27:58;16.70;99.90
37380;DHT22;23252;-33.992;18.480;2023-08-06T10:30:33;16.70;99.90
37380;DHT22;23252;-33.992;18.480;2023-08-06T10:33:03;16.70;99.90
37380;DHT22;23252;-33.992;18.480;2023-08-06T10:35:43;16.80;99.90
37380;DHT22;23252;-33.992;18.480;2023-08-06T10:38:18;17.00;99.90
37380;DHT22;23252;-33.992;18.480;2023-08-06T10:41:01;17.00;99.90
37380;DHT22;23252;-33.992;18.480;2023-08-06T10:43:38;17.10;99.90
37380;DHT22;23252;-33.992;18.480;2023-08-06T10:46:10;17.10;99.90
37380;DHT22;23252;-33.992;18.480;2023-08-06T10:48:41;17.10;99.90
37380;DHT22;23252;-33.992;18.480;2023-08-06T10:51:11;17.10;99.90
37380;DHT22;23252;-33.992;18.480;2023-08-06T10:53:41;17.10;99.90
37380;DHT22;23252;-33.992;18.480;2023-08-06T10:56:22;17.20;99.90
37380;DHT22;23252;-33.992;18.480;2023-08-06T10:58:50;17.20;99.90
37380;DHT22;23252;-33.992;18.480;2023-08-06T11:01:17;17.30;99.90
37380;DHT22;23252;-33.992;18.480;2023-08-06T11:03:45;17.40;99.90
37380;DHT22;23252;-33.992;18.480;2023-08-06T11:06:20;17.50;99.90
37380;DHT22;23252;-33.992;18.480;2023-08-06T11:08:54;17.50;99.90
37380;DHT22;23252;-33.992;18.480;2023-08-06T11:11:22;17.60;99.90
37380;DHT22;23252;-33.992;18.480;2023-08-06T11:13:50;17.60;99.90
37380;DHT22;23252;-33.992;18.480;2023-08-06T11:16:19;17.70;99.90
37380;DHT22;23252;-33.992;18.480;2023-08-06T11:18:46;17.80;99.90
37380;DHT22;23252;-33.992;18.480;2023-08-06T11:21:13;17.90;99.90
37380;DHT22;23252;-33.992;18.480;2023-08-06T11:23:40;18.00;99.90
37380;DHT22;23252;-33.992;18.480;2023-08-06T11:26:07;18.00;99.90
37380;DHT22;23252;-33.992;18.480;2023-08-06T11:28:34;18.10;99.90
37380;DHT22;23252;-33.992;18.480;2023-08-06T11:31:01;18.10;99.90
37380;DHT22;23252;-33.992;18.480;2023-08-06T11:33:29;18.20;99.90
37380;DHT22;23252;-33.992;18.480;2023-08-06T11:35:57;18.40;99.90
37380;DHT22;23252;-33.992;18.480;2023-08-06T11:38:30;18.60;99.90
37380;DHT22;23252;-33.992;18.480;2023-08-06T11:40:57;18.80;99.90
37380;DHT22;23252;-33.992;18.480;2023-08-06T11:43:23;18.90;99.90
37380;DHT22;23252;-33.992;18.480;2023-08-06T11:45:50;19.00;99.90
37380;DHT22;23252;-33.992;18.480;2023-08-06T11:48:20;19.40;99.90
37380;DHT22;23252;-33.992;18.480;2023-08-06T11:50:46;19.60;99.90
37380;DHT22;23252;-33.992;18.480;2023-08-06T11:53:14;20.00;99.90
37380;DHT22;23252;-33.992;18.480;2023-08-06T11:55:41;20.40;99.90
37380;DHT22;23252;-33.992;18.480;2023-08-06T11:58:09;20.70;99.90
37380;DHT22;23252;-33.992;18.480;2023-08-06T12:00:42;20.90;99.90
37380;DHT22;23252;-33.992;18.480;2023-08-06T12:03:10;20.80;99.90
37380;DHT22;23252;-33.992;18.480;2023-08-06T12:05:37;20.80;99.90
37380;DHT22;23252;-33.992;18.480;2023-08-06T12:08:05;21.00;99.90
37380;DHT22;23252;-33.992;18.480;2023-08-06T12:10:32;21.20;99.90
37380;DHT22;23252;-33.992;18.480;2023-08-06T12:12:59;21.60;99.90
37380;DHT22;23252;-33.992;18.480;2023-08-06T12:15:26;21.70;99.90
37380;DHT22;23252;-33.992;18.480;2023-08-06T12:17:52;21.80;99.90
37380;DHT22;23252;-33.992;18.480;2023-08-06T12:20:19;21.90;99.90
37380;DHT22;23252;-33.992;18.480;2023-08-06T12:22:46;21.90;99.90
37380;DHT22;23252;-33.992;18.480;2023-08-06T12:25:13;22.10;99.90
37380;DHT22;23252;-33.992;18.480;2023-08-06T12:27:44;22.20;99.90
37380;DHT22;23252;-33.992;18.480;2023-08-06T12:30:12;22.10;99.90
37380;DHT22;23252;-33.992;18.480;2023-08-06T12:32:39;22.10;99.90
37380;DHT22;23252;-33.992;18.480;2023-08-06T12:35:06;22.10;99.90
37380;DHT22;23252;-33.992;18.480;2023-08-06T12:37:33;21.50;99.90
37380;DHT22;23252;-33.992;18.480;2023-08-06T12:40:00;21.00;99.90
37380;DHT22;23252;-33.992;18.480;2023-08-06T12:42:26;20.60;99.90
37380;DHT22;23252;-33.992;18.480;2023-08-06T12:44:53;20.20;99.90
37380;DHT22;23252;-33.992;18.480;2023-08-06T12:47:20;19.90;99.90
37380;DHT22;23252;-33.992;18.480;2023-08-06T12:49:46;19.70;99.90
37380;DHT22;23252;-33.992;18.480;2023-08-06T12:52:13;19.60;99.90
37380;DHT22;23252;-33.992;18.480;2023-08-06T12:54:41;19.60;99.90
37380;DHT22;23252;-33.992;18.480;2023-08-06T12:57:07;19.80;99.90
37380;DHT22;23252;-33.992;18.480;2023-08-06T12:59:34;19.80;99.90
37380;DHT22;23252;-33.992;18.480;2023-08-06T13:02:02;19.70;99.90
37380;DHT22;23252;-33.992;18.480;2023-08-06T13:04:29;19.60;99.90
37380;DHT22;23252;-33.992;18.480;2023-08-06T13:06:56;19.30;99.90
37380;DHT22;23252;-33.992;18.480;2023-08-06T13:09:22;19.20;99.90
37380;DHT22;23252;-33.992;18.480;2023-08-06T13:11:49;19.00;99.90
37380;DHT22;23252;-33.992;18.480;2023-08-06T13:14:16;18.90;99.90
37380;DHT22;23252;-33.992;18.480;2023-08-06T13:16:43;18.80;99.90
37380;DHT22;23252;-33.992;18.480;2023-08-06T13:19:11;18.70;99.90
37380;DHT22;23252;-33.992;18.480;2023-08-06T13:24:09;18.70;99.90
37380;DHT22;23252;-33.992;18.480;2023-08-06T13:26:35;18.70;99.90
37380;DHT22;23252;-33.992;18.480;2023-08-06T13:29:02;18.60;99.90
37380;DHT22;23252;-33.992;18.480;2023-08-06T13:31:29;18.50;99.90
37380;DHT22;23252;-33.992;18.480;2023-08-06T13:33:56;18.50;99.90
37380;DHT22;23252;-33.992;18.480;2023-08-06T13:36:25;18.50;99.90
37380;DHT22;23252;-33.992;18.480;2023-08-06T13:38:52;18.40;99.90
37380;DHT22;23252;-33.992;18.480;2023-08-06T13:41:18;18.40;99.90
37380;DHT22;23252;-33.992;18.480;2023-08-06T13:43:45;18.40;99.90
37380;DHT22;23252;-33.992;18.480;2023-08-06T13:46:12;18.40;99.90
37380;DHT22;23252;-33.992;18.480;2023-08-06T13:48:42;18.30;99.90
37380;DHT22;23252;-33.992;18.480;2023-08-06T13:51:11;18.30;99.90
37380;DHT22;23252;-33.992;18.480;2023-08-06T13:53:38;18.30;99.90
37380;DHT22;23252;-33.992;18.480;2023-08-06T13:56:05;18.30;99.90
37380;DHT22;23252;-33.992;18.480;2023-08-06T13:58:33;18.20;99.90
37380;DHT22;23252;-33.992;18.480;2023-08-06T14:01:00;18.10;99.90
37380;DHT22;23252;-33.992;18.480;2023-08-06T14:03:26;18.00;99.90
37380;DHT22;23252;-33.992;18.480;2023-08-06T14:05:53;17.90;99.90
37380;DHT22;23252;-33.992;18.480;2023-08-06T14:08:23;17.90;99.90
37380;DHT22;23252;-33.992;18.480;2023-08-06T14:10:54;17.80;99.90
37380;DHT22;23252;-33.992;18.480;2023-08-06T14:13:22;17.70;99.90
37380;DHT22;23252;-33.992;18.480;2023-08-06T14:15:48;17.60;99.90
37380;DHT22;23252;-33.992;18.480;2023-08-06T14:18:15;17.50;99.90
37380;DHT22;23252;-33.992;18.480;2023-08-06T14:20:42;17.40;99.90
37380;DHT22;23252;-33.992;18.480;2023-08-06T14:23:11;17.30;99.90
37380;DHT22;23252;-33.992;18.480;2023-08-06T14:25:39;17.30;99.90
37380;DHT22;23252;-33.992;18.480;2023-08-06T14:28:05;17.30;99.90
37380;DHT22;23252;-33.992;18.480;2023-08-06T14:30:33;17.20;99.90
37380;DHT22;23252;-33.992;18.480;2023-08-06T14:32:59;17.30;99.90
37380;DHT22;23252;-33.992;18.480;2023-08-06T14:35:26;17.30;99.90
37380;DHT22;23252;-33.992;18.480;2023-08-06T14:37:53;17.30;99.90
37380;DHT22;23252;-33.992;18.480;2023-08-06T14:40:19;17.30;99.90
37380;DHT22;23252;-33.992;18.480;2023-08-06T14:42:46;17.30;99.90
37380;DHT22;23252;-33.992;18.480;2023-08-06T14:45:12;17.20;99.90
37380;DHT22;23252;-33.992;18.480;2023-08-06T14:47:39;17.20;99.90
37380;DHT22;23252;-33.992;18.480;2023-08-06T14:50:05;17.30;99.90
37380;DHT22;23252;-33.992;18.480;2023-08-06T14:52:32;17.20;99.90
37380;DHT22;23252;-33.992;18.480;2023-08-06T14:55:00;17.20;99.90
37380;DHT22;23252;-33.992;18.480;2023-08-06T14:57:28;17.30;99.90
37380;DHT22;23252;-33.992;18.480;2023-08-06T14:59:55;17.20;99.90
37380;DHT22;23252;-33.992;18.480;2023-08-06T15:02:22;17.20;99.90
37380;DHT22;23252;-33.992;18.480;2023-08-06T15:04:48;17.20;99.90
37380;DHT22;23252;-33.992;18.480;2023-08-06T15:07:15;17.20;99.90
37380;DHT22;23252;-33.992;18.480;2023-08-06T15:09:42;17.20;99.90
37380;DHT22;23252;-33.992;18.480;2023-08-06T15:12:08;17.10;99.90
37380;DHT22;23252;-33.992;18.480;2023-08-06T15:14:35;17.10;99.90